• Join FlightAware (Why Join?)
  • Login
  • US Flag 
Gobble Gobble! 
07:28AM EST


 

Airport Tracker/Info


-or-


 

Live Flight TrackerFlight Track Log ✈ LXJ609 ✈ 27-Jun-2013 ✈ KACK - KCHA

Flight Track Log - Related Links

Times and Time Zones

All times are in EDT time to prevent confusion due to time zone crossing. See the LXJ609 flight status page for this flight to view local times or setup timezone preferences in your user account.

Time Position Orientation Groundspeed Altitude Reporting Facility
EDT Latitude Longitude Course Direction KTS MPH feet Rate Location/Type
07:10AM 41.2714 -70.1975 North 231 266 5,200  Level Boston Center
07:11AM 41.3461 -70.1811 North 202 232 9,100 3,720 Climbing Boston Center
07:12AM 41.4292 -70.1614 10° North 247 284 12,700 3,720 Climbing Boston Center
07:13AM 41.5267 -70.1442 North 297 342 16,600 4,080 Climbing Boston Center
07:14AM 41.6117 -70.2161 328° Northwest 304 350 20,900 3,600 Climbing Boston Center
07:15AM 41.9028 -70.0333 North  Level FlightAware Approximate
07:15AM 41.6922 -70.2939 324° Northwest 319 367 23,900  Level Boston Center
07:16AM 42.0117 -70.0333 North  Level FlightAware Approximate
07:16AM 41.7750 -70.3772 323° Northwest 347 399 26,900  Level Boston Center
07:17AM 41.8600 -70.4636 323° Northwest 371 427 29,800 2,460 Climbing Boston Center
07:18AM 41.9264 -70.5622 312° West 359 413 31,900 1,860 Climbing Boston Center
07:19AM 41.9347 -70.6986 275° West 346 398 33,600 1,560 Climbing Boston Center
07:20AM 41.9411 -70.8381 274° West 360 414 35,100 1,440 Climbing Boston Center
07:21AM 41.9489 -70.9692 275° West 380 437 36,500 1,440 Climbing Boston Center
07:22AM 41.9550 -71.1114 273° West 386 444 38,000 1,500 Climbing Boston Center
07:23AM 41.9628 -71.2536 274° West 386 444 39,500 1,440 Climbing Boston Center
07:24AM 41.9683 -71.3903 273° West 381 438 40,900 1,200 Climbing Boston Center
07:25AM 41.9736 -71.5297 273° West 381 438 41,900 1,020 Climbing Boston Center
07:26AM 41.9769 -71.6750 272° West 364 419 43,000 540 Climbing Boston Center
07:27AM 41.9819 -71.8144 273° West 364 419 43,000  Level Boston Center
07:28AM 41.9889 -71.9625 274° West 372 428 43,000  Level Boston Center
07:29AM 41.9914 -72.1106 271° West 391 450 43,000  Level Boston Center
07:30AM 41.9958 -72.2586 272° West 402 463 43,000  Level Boston Center
07:31AM 42.0022 -72.4094 273° West 402 463 43,000  Level Boston Center
07:32AM 42.0086 -72.5631 273° West 402 463 43,000  Level Boston Center
07:33AM 42.0167 -72.7056 274° West 397 457 43,000  Level Boston Center
07:34AM 42.0203 -72.8564 272° West 397 457 43,000  Level Boston Center
07:35AM 42.0239 -72.9739 272° West 402 463 43,000  Level Boston Center
07:36AM 42.0231 -73.1472 270° West 408 470 43,000  Level Boston Center
07:37AM 42.0261 -73.2981 272° West 408 470 43,000  Level Boston Center
07:38AM 42.0311 -73.4464 273° West 402 463 43,000  Level Boston Center
07:39AM 42.0361 -73.5944 273° West 402 463 43,000  Level Boston Center
07:40AM 42.0386 -73.7456 271° West 402 463 43,000  Level Boston Center
07:41AM 42.0431 -73.8939 272° West 402 463 43,000  Level Boston Center
07:42AM 42.0453 -74.0419 271° West 402 463 43,000  Level Boston Center
07:43AM 42.0492 -74.1875 272° West 402 463 43,000  Level Boston Center
07:44AM 42.0531 -74.3358 272° West 397 457 43,000  Level Boston Center
07:45AM 42.0542 -74.5119 271° West 397 457 43,000  Level Boston Center
07:46AM 42.0200 -74.6617 253° West 397 457 43,000  Level Boston Center
07:49AM 41.9219 -74.9689 247° West 426 490 43,000  Level New York Center
07:50AM 41.8797 -75.1056 248° West 420 483 43,000  Level New York Center
07:51AM 41.8350 -75.2444 247° West 415 478 43,000  Level New York Center
07:52AM 41.7922 -75.3781 247° West 409 471 43,000  Level New York Center
07:52AM 41.7475 -75.5139 246° West 409 471 43,000  Level New York Center
07:54AM 41.7044 -75.6525 247° West 409 471 43,000  Level New York Center
07:55AM 41.6611 -75.7881 247° West 409 471 43,000  Level New York Center
07:56AM 41.6158 -75.9206 245° Southwest 409 471 43,000  Level New York Center
07:57AM 41.5744 -76.0561 248° West 409 471 43,000  Level New York Center
07:57AM 41.5311 -76.1914 247° West 409 471 43,000  Level New York Center
07:59AM 41.4869 -76.3317 247° West 409 471 43,000  Level New York Center
08:00AM 41.4453 -76.4639 247° West 414 476 43,000  Level New York Center
08:01AM 41.3972 -76.5953 244° Southwest 413 475 43,000  Level New York Center
08:02AM 41.3511 -76.7269 245° Southwest 407 468 43,000  Level New York Center
08:03AM 41.3047 -76.8636 246° West 407 468 43,000  Level New York Center
08:04AM 41.2603 -76.9978 246° West 407 468 43,000  Level New York Center
08:05AM 41.2156 -77.1314 246° West 407 468 43,000  Level New York Center
08:06AM 41.1667 -77.2675 245° Southwest 407 468 43,000  Level New York Center
08:07AM 41.1169 -77.4114 245° Southwest 407 468 43,000  Level New York Center
08:08AM 41.0719 -77.5447 246° West 402 463 43,000  Level New York Center
08:09AM 41.0111 -77.7158 245° Southwest 421 484 43,000  Level Cleveland Center
08:10AM 40.9642 -77.8497 245° Southwest 414 476 43,000  Level Cleveland Center
08:11AM 40.9172 -77.9836 245° Southwest 409 471 43,000  Level Cleveland Center
08:12AM 40.8469 -78.1017 232° Southwest 409 471 43,000  Level Cleveland Center
08:13AM 40.7722 -78.2114 228° Southwest 409 471 43,000  Level Cleveland Center
08:14AM 40.6994 -78.3264 230° Southwest 409 471 43,000  Level Cleveland Center
08:15AM 40.6267 -78.4411 230° Southwest 414 476 43,000  Level Cleveland Center
08:16AM 40.5517 -78.5556 229° Southwest 414 476 43,000  Level Cleveland Center
08:17AM 40.4764 -78.6725 230° Southwest 414 476 43,000  Level Cleveland Center
08:18AM 40.4053 -78.7836 230° Southwest 414 476 43,000  Level Cleveland Center
08:19AM 40.3300 -78.8972 229° Southwest 414 476 43,000  Level Cleveland Center
08:20AM 40.2522 -79.0133 229° Southwest 414 476 43,000  Level Cleveland Center
08:21AM 40.1789 -79.1267 230° Southwest 414 476 43,000  Level Cleveland Center
08:22AM 40.1031 -79.2422 229° Southwest 414 476 43,000  Level Cleveland Center
08:23AM 40.0292 -79.3522 229° Southwest 414 476 43,000  Level Cleveland Center
08:24AM 39.9533 -79.4672 229° Southwest 414 476 43,000  Level Cleveland Center
08:25AM 39.8772 -79.5822 229° Southwest 414 476 43,000  Level Cleveland Center
08:26AM 39.7989 -79.6969 228° Southwest 414 476 43,000  Level Cleveland Center
08:27AM 39.7206 -79.8111 228° Southwest 414 476 43,000  Level Cleveland Center
08:28AM 39.6464 -79.9253 230° Southwest 419 482 43,000  Level Cleveland Center
08:29AM 39.5219 -80.1017 228° Southwest 422 486 43,000  Level Indianapolis Center
08:30AM 39.4428 -80.2156 228° Southwest 423 487 43,000  Level Indianapolis Center
08:31AM 39.3656 -80.3306 229° Southwest 423 487 43,000  Level Indianapolis Center
08:32AM 39.2719 -80.4650 228° Southwest 421 484 43,000  Level Indianapolis Center
08:34AM 39.1931 -80.5789 228° Southwest 424 488 43,000  Level Indianapolis Center
08:35AM 39.1167 -80.6889 228° Southwest 414 476 43,000  Level Indianapolis Center
08:36AM 39.0389 -80.7989 228° Southwest 415 478 43,000  Level Indianapolis Center
08:37AM 38.9617 -80.9086 228° Southwest 415 478 43,000  Level Indianapolis Center
08:38AM 38.8861 -81.0175 228° Southwest 411 473 43,000  Level Indianapolis Center
08:39AM 38.8089 -81.1258 228° Southwest 409 471 43,000  Level Indianapolis Center
08:40AM 38.7314 -81.2344 228° Southwest 411 473 43,000  Level Indianapolis Center
08:41AM 38.6525 -81.3428 227° Southwest 411 473 43,000  Level Indianapolis Center
08:42AM 38.5711 -81.4606 229° Southwest 406 467 43,000  Level Indianapolis Center
08:43AM 38.4808 -81.5875 228° Southwest 411 473 43,000  Level Indianapolis Center
08:44AM 38.4047 -81.6947 228° Southwest 407 468 43,000  Level Indianapolis Center
08:45AM 38.3250 -81.7992 226° Southwest 407 468 43,000  Level Indianapolis Center
08:46AM 38.2381 -81.8931 220° Southwest 411 473 43,000  Level Indianapolis Center
08:47AM 38.1503 -81.9889 221° Southwest 414 476 43,000  Level Indianapolis Center
08:48AM 38.0639 -82.0822 220° Southwest 411 473 43,000  Level Indianapolis Center
08:49AM 37.9631 -82.1919 221° Southwest 410 472 43,000  Level Indianapolis Center
08:50AM 37.8764 -82.2850 220° Southwest 409 471 43,000 -420 Level Indianapolis Center
08:51AM 37.7872 -82.3789 220° Southwest 414 476 42,200 -900 Descending Indianapolis Center
08:52AM 37.6978 -82.4756 221° Southwest 421 484 41,200 -1,020 Descending Indianapolis Center
08:53AM 37.6061 -82.5761 221° Southwest 432 497 40,200 -1,020 Descending Indianapolis Center
08:54AM 37.5128 -82.6742 220° Southwest 435 501 39,200 -1,080 Descending Indianapolis Center
08:55AM 37.4069 -82.7881 221° Southwest 429 494 38,100 -1,080 Descending Indianapolis Center
08:56AM 37.3161 -82.8842 220° Southwest 427 491 37,100 -960 Descending Indianapolis Center
08:57AM 37.2267 -82.9806 221° Southwest 426 490 36,200 -960 Descending Indianapolis Center
08:58AM 37.1356 -83.0761 220° Southwest 429 494 35,200 -1,020 Descending Indianapolis Center
08:59AM 37.0439 -83.1725 220° Southwest 433 498 34,200 -600 Descending Indianapolis Center
09:00AM 36.9369 -83.2839 220° Southwest 433 498 34,000 -120 Descending Indianapolis Center
09:01AM 36.8417 -83.3814 219° Southwest 441 507 34,000  Level Indianapolis Center
09:02AM 36.7469 -83.4797 220° Southwest 445 512 34,000  Level Indianapolis Center
09:03AM 36.6506 -83.5781 219° Southwest 447 514 34,000  Level Indianapolis Center
09:04AM 36.5544 -83.6775 220° Southwest 450 518 34,000 -540 Level Indianapolis Center
09:05AM 36.4567 -83.7778 220° Southwest 451 519 33,000 -1,080 Descending Indianapolis Center
09:06AM 36.3408 -83.8997 220° Southwest 454 522 31,800 -1,080 Descending Indianapolis Center
09:08AM 36.2422 -83.9986 219° Southwest 453 521 30,800 -1,020 Descending Indianapolis Center
09:09AM 36.1444 -84.0989 220° Southwest 454 522 29,800 1,800 Descending Indianapolis Center
09:09AM 36.0792 -84.1647 219° Southwest 454 522 34,000 -1,020 Climbing Atlanta Center
09:10AM 35.9789 -84.2644 219° Southwest 460 529 28,100 -3,720 Descending Atlanta Center
09:11AM 35.8742 -84.3719 220° Southwest 472 543 26,600 2,940 Descending Atlanta Center
09:12AM 35.7758 -84.4714 219° Southwest 472 543 34,000 -3,900 Climbing Atlanta Center
09:13AM 35.6797 -84.5653 218° Southwest 457 526 18,800 -9,300 Descending Atlanta Center
09:14AM 35.5875 -84.6567 219° Southwest 446 513 15,400 -3,240 Descending Atlanta Center
09:15AM 35.5014 -84.7453 220° Southwest 428 493 12,400 -2,160 Descending Atlanta Center
09:16AM 35.4194 -84.8236 218° Southwest 402 463 11,100 -1,200 Descending Atlanta Center
09:17AM 35.3439 -84.9019 220° Southwest 364 419 10,000 -1,620 Descending Atlanta Center
09:18AM 35.2831 -84.9622 219° Southwest 316 364 7,900 -2,160 Descending Atlanta Center
09:19AM 35.2242 -85.0203 219° Southwest 289 333 5,700 -2,220 Descending Atlanta Center
09:20AM 35.1672 -85.0753 218° Southwest 274 315 3,500 -1,620 Descending Atlanta Center
09:21AM 35.1231 -85.1308 226° Southwest 256 295 2,500 -840 Descending Atlanta Center
09:22AM 35.0914 -85.1786 231° Southwest 219 252 1,900 -780 Descending Atlanta Center
09:23AM 35.0556 -85.1983 204° Southwest 176 203 1,000 -900 Descending Atlanta Center
09:25AM 35.0333 -85.2000 231° Southwest  Level FlightAware Approximate
09:32AM 35.0352 -85.2036 231° Southwest  Level Estimated
09:33AM 35.0333 -85.2000 231° Southwest  Level FlightAware Approximate
09:34AM 35.0352 -85.2036 231° Southwest  Level Estimated
09:35AM 35.0333 -85.2000 231° Southwest  Level FlightAware Approximate
09:36AM 35.0352 -85.2036 231° Southwest  Level Estimated
09:37AM 35.0333 -85.2000 231° Southwest  Level FlightAware Approximate
09:38AM 35.0352 -85.2036 231° Southwest  Level Estimated
09:39AM 35.0333 -85.2000 231° Southwest  Level FlightAware Approximate
09:40AM 35.0352 -85.2036 231° Southwest  Level Estimated
09:41AM 35.0333 -85.2000 231° Southwest  Level FlightAware Approximate
09:42AM 35.0352 -85.2036 231° Southwest  Level Estimated
09:43AM 35.0333 -85.2000 231° Southwest  Level FlightAware Approximate